KBAC

Barnes County Municipal Airport

Valley City, North Dakota, USA
METAR KBAC 202355Z AUTO 36006KT 10SM CLR 20/10 A3015 RMK AO2
Observed Flight Rules
Aug-20 @ 23:55 UTC (14 minutes ago) Visual Flight Rules
Wind Visibility Clouds
360° at 6 knots 10 miles
  • Clear skies
Temperatures Readings
Current 20°C / 68°F
Dewpoint 10°C / 50°F
Humidity 53%
Altimeter 30.15" Hg
Pressure 1021 hPa
Elevation 427
METAR KBAC 202355Z AUTO 36006KT 10SM CLR 20/10 A3015 RMK AO2
Observed Flight Rules
Aug-20 @ 23:55 UTC
(14 minutes ago)
VFR
Wind Visibility
360° at 6 knots 10 miles
Clouds
  • Clear skies
Temperature Dewpoint
20°C / 68°F 10°C / 50°F
Humidity Altimeter Pressure
53% 30.15" Hg 1021 hPa